sensor_id;sensor_type;location;lat;lon;timestamp;P1;durP1;ratioP1;P2;durP2;ratioP2
17714;SDS011;8977;50.902;4.314;2022-07-05T00:00:54;2.55;;;2.38;;
17714;SDS011;8977;50.902;4.314;2022-07-05T00:03:21;4.35;;;2.40;;
17714;SDS011;8977;50.902;4.314;2022-07-05T00:05:49;3.15;;;2.88;;
17714;SDS011;8977;50.902;4.314;2022-07-05T00:08:16;4.47;;;2.55;;
17714;SDS011;8977;50.902;4.314;2022-07-05T00:10:43;2.97;;;2.50;;
17714;SDS011;8977;50.902;4.314;2022-07-05T00:13:10;2.60;;;2.40;;
17714;SDS011;8977;50.902;4.314;2022-07-05T00:15:37;3.25;;;2.30;;
17714;SDS011;8977;50.902;4.314;2022-07-05T00:18:04;4.07;;;2.88;;
17714;SDS011;8977;50.902;4.314;2022-07-05T00:20:31;4.28;;;2.88;;
17714;SDS011;8977;50.902;4.314;2022-07-05T00:23:00;5.13;;;2.80;;
17714;SDS011;8977;50.902;4.314;2022-07-05T00:25:27;3.85;;;2.50;;
17714;SDS011;8977;50.902;4.314;2022-07-05T00:27:54;2.67;;;2.35;;
17714;SDS011;8977;50.902;4.314;2022-07-05T00:30:20;3.10;;;2.80;;
17714;SDS011;8977;50.902;4.314;2022-07-05T00:32:47;6.07;;;2.85;;
17714;SDS011;8977;50.902;4.314;2022-07-05T00:35:14;4.68;;;2.80;;
17714;SDS011;8977;50.902;4.314;2022-07-05T00:37:41;4.90;;;2.78;;
17714;SDS011;8977;50.902;4.314;2022-07-05T00:40:10;3.97;;;2.72;;
17714;SDS011;8977;50.902;4.314;2022-07-05T00:42:37;4.13;;;2.72;;
17714;SDS011;8977;50.902;4.314;2022-07-05T00:45:04;5.18;;;2.80;;
17714;SDS011;8977;50.902;4.314;2022-07-05T00:47:32;3.67;;;2.90;;
17714;SDS011;8977;50.902;4.314;2022-07-05T00:49:59;2.85;;;2.60;;
17714;SDS011;8977;50.902;4.314;2022-07-05T00:52:26;3.88;;;3.15;;
17714;SDS011;8977;50.902;4.314;2022-07-05T00:54:53;3.10;;;2.70;;
17714;SDS011;8977;50.902;4.314;2022-07-05T00:57:21;3.58;;;3.17;;
17714;SDS011;8977;50.902;4.314;2022-07-05T00:59:49;5.53;;;2.80;;
17714;SDS011;8977;50.902;4.314;2022-07-05T01:02:16;3.67;;;2.88;;
17714;SDS011;8977;50.902;4.314;2022-07-05T01:04:45;6.05;;;2.78;;
17714;SDS011;8977;50.902;4.314;2022-07-05T01:07:14;3.85;;;2.70;;
17714;SDS011;8977;50.902;4.314;2022-07-05T01:09:41;3.15;;;2.83;;
17714;SDS011;8977;50.902;4.314;2022-07-05T01:12:08;4.10;;;3.05;;
17714;SDS011;8977;50.902;4.314;2022-07-05T01:14:37;4.13;;;3.17;;
17714;SDS011;8977;50.902;4.314;2022-07-05T01:17:04;4.28;;;2.90;;
17714;SDS011;8977;50.902;4.314;2022-07-05T01:19:31;4.03;;;3.40;;
17714;SDS011;8977;50.902;4.314;2022-07-05T01:22:00;4.30;;;3.13;;
17714;SDS011;8977;50.902;4.314;2022-07-05T01:24:30;3.40;;;2.78;;
17714;SDS011;8977;50.902;4.314;2022-07-05T01:26:57;6.50;;;3.17;;
17714;SDS011;8977;50.902;4.314;2022-07-05T01:29:24;3.78;;;3.25;;
17714;SDS011;8977;50.902;4.314;2022-07-05T01:31:51;6.20;;;2.97;;
17714;SDS011;8977;50.902;4.314;2022-07-05T01:34:19;3.58;;;3.28;;
17714;SDS011;8977;50.902;4.314;2022-07-05T01:36:46;5.32;;;2.92;;
17714;SDS011;8977;50.902;4.314;2022-07-05T01:39:13;3.72;;;3.17;;
17714;SDS011;8977;50.902;4.314;2022-07-05T01:41:42;5.32;;;2.70;;
17714;SDS011;8977;50.902;4.314;2022-07-05T01:44:10;4.50;;;3.30;;
17714;SDS011;8977;50.902;4.314;2022-07-05T01:46:38;4.85;;;3.15;;
17714;SDS011;8977;50.902;4.314;2022-07-05T01:49:06;4.15;;;2.80;;
17714;SDS011;8977;50.902;4.314;2022-07-05T01:51:38;3.55;;;3.13;;
17714;SDS011;8977;50.902;4.314;2022-07-05T01:54:07;4.85;;;2.90;;
17714;SDS011;8977;50.902;4.314;2022-07-05T01:56:36;2.72;;;2.53;;
17714;SDS011;8977;50.902;4.314;2022-07-05T01:59:05;5.28;;;3.05;;
17714;SDS011;8977;50.902;4.314;2022-07-05T02:01:33;5.68;;;3.00;;
17714;SDS011;8977;50.902;4.314;2022-07-05T02:04:01;4.57;;;2.85;;
17714;SDS011;8977;50.902;4.314;2022-07-05T02:06:30;4.88;;;3.35;;
17714;SDS011;8977;50.902;4.314;2022-07-05T02:08:58;4.25;;;2.95;;
17714;SDS011;8977;50.902;4.314;2022-07-05T02:11:25;4.80;;;2.92;;
17714;SDS011;8977;50.902;4.314;2022-07-05T02:13:52;3.67;;;2.70;;
17714;SDS011;8977;50.902;4.314;2022-07-05T02:16:23;3.58;;;2.85;;
17714;SDS011;8977;50.902;4.314;2022-07-05T02:18:50;3.80;;;3.00;;
17714;SDS011;8977;50.902;4.314;2022-07-05T02:21:17;4.18;;;2.70;;
17714;SDS011;8977;50.902;4.314;2022-07-05T02:23:44;3.08;;;2.60;;
17714;SDS011;8977;50.902;4.314;2022-07-05T02:26:11;3.30;;;2.83;;
17714;SDS011;8977;50.902;4.314;2022-07-05T02:28:38;3.75;;;2.63;;
17714;SDS011;8977;50.902;4.314;2022-07-05T02:31:05;4.38;;;2.88;;
17714;SDS011;8977;50.902;4.314;2022-07-05T02:33:34;5.97;;;3.10;;
17714;SDS011;8977;50.902;4.314;2022-07-05T02:36:04;4.00;;;2.60;;
17714;SDS011;8977;50.902;4.314;2022-07-05T02:38:33;5.70;;;3.83;;
17714;SDS011;8977;50.902;4.314;2022-07-05T02:41:00;3.13;;;2.83;;
17714;SDS011;8977;50.902;4.314;2022-07-05T02:43:30;4.78;;;2.78;;
17714;SDS011;8977;50.902;4.314;2022-07-05T02:45:57;5.00;;;3.03;;
17714;SDS011;8977;50.902;4.314;2022-07-05T02:48:24;6.22;;;3.20;;
17714;SDS011;8977;50.902;4.314;2022-07-05T02:50:52;4.85;;;3.50;;
17714;SDS011;8977;50.902;4.314;2022-07-05T02:53:19;6.00;;;3.13;;
17714;SDS011;8977;50.902;4.314;2022-07-05T02:55:46;3.67;;;3.15;;
17714;SDS011;8977;50.902;4.314;2022-07-05T02:58:13;6.40;;;3.00;;
17714;SDS011;8977;50.902;4.314;2022-07-05T03:00:41;6.28;;;3.40;;
17714;SDS011;8977;50.902;4.314;2022-07-05T03:03:08;3.42;;;2.95;;
17714;SDS011;8977;50.902;4.314;2022-07-05T03:05:35;6.82;;;3.17;;
17714;SDS011;8977;50.902;4.314;2022-07-05T03:08:04;5.70;;;3.80;;
17714;SDS011;8977;50.902;4.314;2022-07-05T03:10:31;5.63;;;3.28;;
17714;SDS011;8977;50.902;4.314;2022-07-05T03:12:58;4.05;;;3.17;;
17714;SDS011;8977;50.902;4.314;2022-07-05T03:15:25;4.28;;;3.45;;
17714;SDS011;8977;50.902;4.314;2022-07-05T03:17:52;4.85;;;3.63;;
17714;SDS011;8977;50.902;4.314;2022-07-05T03:20:19;6.00;;;4.40;;
17714;SDS011;8977;50.902;4.314;2022-07-05T03:22:46;5.05;;;3.95;;
17714;SDS011;8977;50.902;4.314;2022-07-05T03:25:15;4.70;;;3.67;;
17714;SDS011;8977;50.902;4.314;2022-07-05T03:27:41;6.38;;;4.00;;
17714;SDS011;8977;50.902;4.314;2022-07-05T03:30:09;4.25;;;3.42;;
17714;SDS011;8977;50.902;4.314;2022-07-05T03:32:37;6.18;;;3.88;;
17714;SDS011;8977;50.902;4.314;2022-07-05T03:35:04;5.63;;;3.65;;
17714;SDS011;8977;50.902;4.314;2022-07-05T03:37:31;5.97;;;3.80;;
17714;SDS011;8977;50.902;4.314;2022-07-05T03:39:58;5.50;;;4.18;;
17714;SDS011;8977;50.902;4.314;2022-07-05T03:42:26;5.82;;;4.15;;
17714;SDS011;8977;50.902;4.314;2022-07-05T03:44:53;5.50;;;3.58;;
17714;SDS011;8977;50.902;4.314;2022-07-05T03:47:20;8.63;;;3.88;;
17714;SDS011;8977;50.902;4.314;2022-07-05T03:49:47;5.10;;;3.33;;
17714;SDS011;8977;50.902;4.314;2022-07-05T03:52:14;5.13;;;3.72;;
17714;SDS011;8977;50.902;4.314;2022-07-05T03:54:41;5.53;;;3.53;;
17714;SDS011;8977;50.902;4.314;2022-07-05T03:57:09;6.13;;;3.85;;
17714;SDS011;8977;50.902;4.314;2022-07-05T03:59:38;6.60;;;4.00;;
17714;SDS011;8977;50.902;4.314;2022-07-05T04:02:05;5.50;;;4.13;;
17714;SDS011;8977;50.902;4.314;2022-07-05T04:04:32;7.07;;;4.07;;
17714;SDS011;8977;50.902;4.314;2022-07-05T04:06:59;5.63;;;3.70;;
17714;SDS011;8977;50.902;4.314;2022-07-05T04:09:26;5.93;;;4.03;;
17714;SDS011;8977;50.902;4.314;2022-07-05T04:11:53;6.07;;;4.22;;
17714;SDS011;8977;50.902;4.314;2022-07-05T04:14:20;5.78;;;3.72;;
17714;SDS011;8977;50.902;4.314;2022-07-05T04:16:49;6.50;;;3.38;;
17714;SDS011;8977;50.902;4.314;2022-07-05T04:19:16;6.43;;;3.75;;
17714;SDS011;8977;50.902;4.314;2022-07-05T04:21:43;5.63;;;3.83;;
17714;SDS011;8977;50.902;4.314;2022-07-05T04:24:09;5.63;;;3.58;;
17714;SDS011;8977;50.902;4.314;2022-07-05T04:26:36;4.10;;;3.20;;
17714;SDS011;8977;50.902;4.314;2022-07-05T04:29:03;4.47;;;3.45;;
17714;SDS011;8977;50.902;4.314;2022-07-05T04:31:30;5.00;;;3.20;;
17714;SDS011;8977;50.902;4.314;2022-07-05T04:33:58;7.25;;;3.20;;
17714;SDS011;8977;50.902;4.314;2022-07-05T04:36:25;7.43;;;3.50;;
17714;SDS011;8977;50.902;4.314;2022-07-05T04:38:52;3.22;;;2.88;;
17714;SDS011;8977;50.902;4.314;2022-07-05T04:41:19;5.00;;;3.30;;
17714;SDS011;8977;50.902;4.314;2022-07-05T04:43:46;5.68;;;3.50;;
17714;SDS011;8977;50.902;4.314;2022-07-05T04:46:13;6.22;;;3.47;;
17714;SDS011;8977;50.902;4.314;2022-07-05T04:48:39;5.07;;;3.42;;
17714;SDS011;8977;50.902;4.314;2022-07-05T04:51:08;5.22;;;3.17;;
17714;SDS011;8977;50.902;4.314;2022-07-05T04:53:34;3.30;;;3.00;;
17714;SDS011;8977;50.902;4.314;2022-07-05T04:56:01;4.53;;;3.53;;
17714;SDS011;8977;50.902;4.314;2022-07-05T04:58:28;5.18;;;3.85;;
17714;SDS011;8977;50.902;4.314;2022-07-05T05:00:55;4.10;;;3.40;;
17714;SDS011;8977;50.902;4.314;2022-07-05T05:03:22;4.43;;;3.58;;
17714;SDS011;8977;50.902;4.314;2022-07-05T05:05:49;4.45;;;3.60;;
17714;SDS011;8977;50.902;4.314;2022-07-05T05:08:17;8.27;;;3.97;;
17714;SDS011;8977;50.902;4.314;2022-07-05T05:10:44;6.28;;;3.90;;
17714;SDS011;8977;50.902;4.314;2022-07-05T05:13:11;6.15;;;3.83;;
17714;SDS011;8977;50.902;4.314;2022-07-05T05:15:37;5.50;;;3.75;;
17714;SDS011;8977;50.902;4.314;2022-07-05T05:18:04;5.35;;;3.88;;
17714;SDS011;8977;50.902;4.314;2022-07-05T05:20:31;4.43;;;3.47;;
17714;SDS011;8977;50.902;4.314;2022-07-05T05:22:58;5.57;;;3.65;;
17714;SDS011;8977;50.902;4.314;2022-07-05T05:25:26;5.80;;;3.70;;
17714;SDS011;8977;50.902;4.314;2022-07-05T05:27:55;4.28;;;3.42;;
17714;SDS011;8977;50.902;4.314;2022-07-05T05:30:22;5.43;;;3.08;;
17714;SDS011;8977;50.902;4.314;2022-07-05T05:32:49;4.60;;;3.20;;
17714;SDS011;8977;50.902;4.314;2022-07-05T05:35:16;6.63;;;3.35;;
17714;SDS011;8977;50.902;4.314;2022-07-05T05:37:48;6.57;;;2.97;;
17714;SDS011;8977;50.902;4.314;2022-07-05T05:40:16;5.15;;;3.63;;
17714;SDS011;8977;50.902;4.314;2022-07-05T05:42:45;6.25;;;3.40;;
17714;SDS011;8977;50.902;4.314;2022-07-05T05:45:12;6.25;;;3.33;;
17714;SDS011;8977;50.902;4.314;2022-07-05T05:47:43;7.00;;;3.20;;
17714;SDS011;8977;50.902;4.314;2022-07-05T05:50:14;4.05;;;3.15;;
17714;SDS011;8977;50.902;4.314;2022-07-05T05:52:44;7.18;;;3.53;;
17714;SDS011;8977;50.902;4.314;2022-07-05T05:55:11;6.88;;;3.47;;
17714;SDS011;8977;50.902;4.314;2022-07-05T05:57:38;6.68;;;3.85;;
17714;SDS011;8977;50.902;4.314;2022-07-05T06:00:07;5.90;;;2.83;;
17714;SDS011;8977;50.902;4.314;2022-07-05T06:02:35;5.85;;;3.33;;
17714;SDS011;8977;50.902;4.314;2022-07-05T06:05:02;7.03;;;3.33;;
17714;SDS011;8977;50.902;4.314;2022-07-05T06:07:29;4.35;;;2.90;;
17714;SDS011;8977;50.902;4.314;2022-07-05T06:09:56;9.23;;;3.15;;
17714;SDS011;8977;50.902;4.314;2022-07-05T06:12:23;6.65;;;3.17;;
17714;SDS011;8977;50.902;4.314;2022-07-05T06:14:50;5.80;;;2.70;;
17714;SDS011;8977;50.902;4.314;2022-07-05T06:17:18;5.18;;;2.70;;
17714;SDS011;8977;50.902;4.314;2022-07-05T06:19:45;6.53;;;2.53;;
17714;SDS011;8977;50.902;4.314;2022-07-05T06:22:11;5.07;;;3.42;;
17714;SDS011;8977;50.902;4.314;2022-07-05T06:24:38;6.47;;;3.65;;
17714;SDS011;8977;50.902;4.314;2022-07-05T06:27:05;5.80;;;3.17;;
17714;SDS011;8977;50.902;4.314;2022-07-05T06:29:32;6.78;;;3.10;;
17714;SDS011;8977;50.902;4.314;2022-07-05T06:31:59;4.78;;;3.50;;
17714;SDS011;8977;50.902;4.314;2022-07-05T06:34:27;6.18;;;3.13;;
17714;SDS011;8977;50.902;4.314;2022-07-05T06:36:54;4.68;;;3.38;;
17714;SDS011;8977;50.902;4.314;2022-07-05T06:39:21;6.80;;;3.20;;
17714;SDS011;8977;50.902;4.314;2022-07-05T06:41:48;7.18;;;3.97;;
17714;SDS011;8977;50.902;4.314;2022-07-05T06:44:14;6.57;;;3.30;;
17714;SDS011;8977;50.902;4.314;2022-07-05T06:46:41;9.38;;;3.63;;
17714;SDS011;8977;50.902;4.314;2022-07-05T06:49:08;6.68;;;3.55;;
17714;SDS011;8977;50.902;4.314;2022-07-05T06:51:36;6.03;;;3.05;;
17714;SDS011;8977;50.902;4.314;2022-07-05T06:54:03;8.63;;;3.85;;
17714;SDS011;8977;50.902;4.314;2022-07-05T06:56:30;7.30;;;3.85;;
17714;SDS011;8977;50.902;4.314;2022-07-05T06:58:57;11.57;;;3.55;;
17714;SDS011;8977;50.902;4.314;2022-07-05T07:01:23;6.50;;;3.60;;
17714;SDS011;8977;50.902;4.314;2022-07-05T07:03:50;6.68;;;3.70;;
17714;SDS011;8977;50.902;4.314;2022-07-05T07:06:18;9.93;;;3.20;;
17714;SDS011;8977;50.902;4.314;2022-07-05T07:08:46;6.38;;;2.92;;
17714;SDS011;8977;50.902;4.314;2022-07-05T07:11:30;9.48;;;2.63;;
17714;SDS011;8977;50.902;4.314;2022-07-05T07:13:57;7.35;;;3.28;;
17714;SDS011;8977;50.902;4.314;2022-07-05T07:16:24;7.38;;;2.80;;
17714;SDS011;8977;50.902;4.314;2022-07-05T07:18:51;7.55;;;2.90;;
17714;SDS011;8977;50.902;4.314;2022-07-05T07:21:18;8.50;;;3.03;;
17714;SDS011;8977;50.902;4.314;2022-07-05T07:23:46;6.35;;;2.33;;
17714;SDS011;8977;50.902;4.314;2022-07-05T07:26:13;8.63;;;3.03;;
17714;SDS011;8977;50.902;4.314;2022-07-05T07:28:40;8.07;;;2.83;;
17714;SDS011;8977;50.902;4.314;2022-07-05T07:31:07;9.55;;;3.08;;
17714;SDS011;8977;50.902;4.314;2022-07-05T07:33:34;7.15;;;2.88;;
17714;SDS011;8977;50.902;4.314;2022-07-05T07:36:01;7.45;;;3.05;;
17714;SDS011;8977;50.902;4.314;2022-07-05T07:38:28;11.05;;;3.20;;
17714;SDS011;8977;50.902;4.314;2022-07-05T07:40:56;8.20;;;3.00;;
17714;SDS011;8977;50.902;4.314;2022-07-05T07:43:25;9.68;;;3.20;;
17714;SDS011;8977;50.902;4.314;2022-07-05T07:45:52;9.57;;;3.35;;
17714;SDS011;8977;50.902;4.314;2022-07-05T07:48:19;6.95;;;3.00;;
17714;SDS011;8977;50.902;4.314;2022-07-05T07:50:46;7.15;;;2.65;;
17714;SDS011;8977;50.902;4.314;2022-07-05T07:53:13;9.57;;;2.92;;
17714;SDS011;8977;50.902;4.314;2022-07-05T07:55:40;5.60;;;3.03;;
17714;SDS011;8977;50.902;4.314;2022-07-05T07:58:08;6.95;;;2.88;;
17714;SDS011;8977;50.902;4.314;2022-07-05T08:00:35;9.55;;;2.70;;
17714;SDS011;8977;50.902;4.314;2022-07-05T08:03:01;9.60;;;3.35;;
17714;SDS011;8977;50.902;4.314;2022-07-05T08:05:28;7.82;;;3.10;;
17714;SDS011;8977;50.902;4.314;2022-07-05T08:07:55;7.93;;;3.65;;
17714;SDS011;8977;50.902;4.314;2022-07-05T08:10:23;6.53;;;3.45;;
17714;SDS011;8977;50.902;4.314;2022-07-05T08:12:50;10.23;;;3.33;;
17714;SDS011;8977;50.902;4.314;2022-07-05T08:15:18;8.13;;;3.03;;
17714;SDS011;8977;50.902;4.314;2022-07-05T08:17:45;5.18;;;2.78;;
17714;SDS011;8977;50.902;4.314;2022-07-05T08:20:26;6.80;;;3.00;;
17714;SDS011;8977;50.902;4.314;2022-07-05T08:23:10;12.98;;;3.85;;
17714;SDS011;8977;50.902;4.314;2022-07-05T08:25:37;9.63;;;3.05;;
17714;SDS011;8977;50.902;4.314;2022-07-05T08:28:04;12.13;;;3.70;;
17714;SDS011;8977;50.902;4.314;2022-07-05T08:30:32;5.78;;;2.95;;
17714;SDS011;8977;50.902;4.314;2022-07-05T08:32:59;4.60;;;3.75;;
17714;SDS011;8977;50.902;4.314;2022-07-05T08:35:26;4.93;;;2.90;;
17714;SDS011;8977;50.902;4.314;2022-07-05T08:37:53;5.18;;;2.88;;
17714;SDS011;8977;50.902;4.314;2022-07-05T08:40:20;10.35;;;3.30;;
17714;SDS011;8977;50.902;4.314;2022-07-05T08:42:51;4.82;;;3.05;;
17714;SDS011;8977;50.902;4.314;2022-07-05T08:45:20;5.78;;;2.83;;
17714;SDS011;8977;50.902;4.314;2022-07-05T08:47:49;5.90;;;2.80;;
17714;SDS011;8977;50.902;4.314;2022-07-05T08:50:17;7.78;;;3.08;;
17714;SDS011;8977;50.902;4.314;2022-07-05T08:52:45;8.82;;;3.38;;
17714;SDS011;8977;50.902;4.314;2022-07-05T08:55:12;6.85;;;4.13;;
17714;SDS011;8977;50.902;4.314;2022-07-05T08:57:40;11.02;;;4.97;;
17714;SDS011;8977;50.902;4.314;2022-07-05T09:00:08;9.30;;;4.53;;
17714;SDS011;8977;50.902;4.314;2022-07-05T09:02:35;9.77;;;4.60;;
17714;SDS011;8977;50.902;4.314;2022-07-05T09:05:04;11.32;;;4.40;;
17714;SDS011;8977;50.902;4.314;2022-07-05T09:07:32;6.75;;;4.47;;
17714;SDS011;8977;50.902;4.314;2022-07-05T09:10:01;9.65;;;4.38;;
17714;SDS011;8977;50.902;4.314;2022-07-05T09:12:29;9.15;;;4.70;;
17714;SDS011;8977;50.902;4.314;2022-07-05T09:14:56;12.95;;;5.70;;
17714;SDS011;8977;50.902;4.314;2022-07-05T09:17:24;10.18;;;4.88;;
17714;SDS011;8977;50.902;4.314;2022-07-05T09:20:08;11.63;;;5.13;;
17714;SDS011;8977;50.902;4.314;2022-07-05T09:22:43;9.73;;;4.85;;
17714;SDS011;8977;50.902;4.314;2022-07-05T09:25:15;8.60;;;4.38;;
17714;SDS011;8977;50.902;4.314;2022-07-05T09:27:47;10.95;;;5.47;;
17714;SDS011;8977;50.902;4.314;2022-07-05T09:30:23;10.77;;;5.25;;
17714;SDS011;8977;50.902;4.314;2022-07-05T09:33:08;14.13;;;6.85;;
17714;SDS011;8977;50.902;4.314;2022-07-05T09:35:38;10.38;;;5.85;;
17714;SDS011;8977;50.902;4.314;2022-07-05T09:38:06;9.85;;;5.93;;
17714;SDS011;8977;50.902;4.314;2022-07-05T09:40:45;10.07;;;5.82;;
17714;SDS011;8977;50.902;4.314;2022-07-05T09:43:14;10.73;;;5.38;;
17714;SDS011;8977;50.902;4.314;2022-07-05T09:45:49;12.13;;;5.57;;
17714;SDS011;8977;50.902;4.314;2022-07-05T09:48:18;12.70;;;6.53;;
17714;SDS011;8977;50.902;4.314;2022-07-05T09:50:46;9.30;;;5.55;;
17714;SDS011;8977;50.902;4.314;2022-07-05T09:53:15;12.07;;;6.35;;
17714;SDS011;8977;50.902;4.314;2022-07-05T09:55:42;10.18;;;5.30;;
17714;SDS011;8977;50.902;4.314;2022-07-05T09:58:15;7.45;;;4.38;;
17714;SDS011;8977;50.902;4.314;2022-07-05T10:00:51;8.63;;;4.50;;
17714;SDS011;8977;50.902;4.314;2022-07-05T10:03:18;5.85;;;3.60;;
17714;SDS011;8977;50.902;4.314;2022-07-05T10:05:46;6.32;;;3.00;;
17714;SDS011;8977;50.902;4.314;2022-07-05T10:08:13;6.47;;;2.58;;
17714;SDS011;8977;50.902;4.314;2022-07-05T10:10:43;6.47;;;2.83;;
17714;SDS011;8977;50.902;4.314;2022-07-05T10:13:12;6.47;;;2.92;;
17714;SDS011;8977;50.902;4.314;2022-07-05T10:15:40;6.80;;;3.47;;
17714;SDS011;8977;50.902;4.314;2022-07-05T10:18:11;8.35;;;3.05;;
17714;SDS011;8977;50.902;4.314;2022-07-05T10:20:39;4.63;;;2.70;;
17714;SDS011;8977;50.902;4.314;2022-07-05T10:23:10;5.82;;;2.72;;
17714;SDS011;8977;50.902;4.314;2022-07-05T10:25:39;5.65;;;2.20;;
17714;SDS011;8977;50.902;4.314;2022-07-05T10:28:07;4.43;;;2.13;;
17714;SDS011;8977;50.902;4.314;2022-07-05T10:30:35;4.32;;;1.77;;
17714;SDS011;8977;50.902;4.314;2022-07-05T10:33:03;3.42;;;2.30;;
17714;SDS011;8977;50.902;4.314;2022-07-05T10:35:32;4.05;;;2.20;;
17714;SDS011;8977;50.902;4.314;2022-07-05T10:37:59;5.70;;;2.42;;
17714;SDS011;8977;50.902;4.314;2022-07-05T10:40:28;5.25;;;1.95;;
17714;SDS011;8977;50.902;4.314;2022-07-05T10:42:58;7.47;;;2.45;;
17714;SDS011;8977;50.902;4.314;2022-07-05T10:45:28;3.70;;;2.17;;
17714;SDS011;8977;50.902;4.314;2022-07-05T10:50:45;7.28;;;2.25;;
17714;SDS011;8977;50.902;4.314;2022-07-05T10:53:15;3.05;;;1.73;;
17714;SDS011;8977;50.902;4.314;2022-07-05T10:55:57;6.32;;;2.17;;
17714;SDS011;8977;50.902;4.314;2022-07-05T10:58:25;6.05;;;1.92;;
17714;SDS011;8977;50.902;4.314;2022-07-05T11:04:07;3.67;;;1.85;;
17714;SDS011;8977;50.902;4.314;2022-07-05T11:06:54;2.63;;;1.98;;
17714;SDS011;8977;50.902;4.314;2022-07-05T11:09:22;3.97;;;1.70;;
17714;SDS011;8977;50.902;4.314;2022-07-05T11:15:04;3.95;;;1.83;;
17714;SDS011;8977;50.902;4.314;2022-07-05T11:17:33;4.25;;;2.17;;
17714;SDS011;8977;50.902;4.314;2022-07-05T11:20:06;3.65;;;2.20;;
17714;SDS011;8977;50.902;4.314;2022-07-05T11:23:00;4.72;;;2.00;;
17714;SDS011;8977;50.902;4.314;2022-07-05T11:25:29;4.97;;;1.85;;
17714;SDS011;8977;50.902;4.314;2022-07-05T11:28:04;4.25;;;2.10;;
17714;SDS011;8977;50.902;4.314;2022-07-05T11:30:43;4.32;;;1.92;;
17714;SDS011;8977;50.902;4.314;2022-07-05T11:36:22;4.32;;;1.90;;
17714;SDS011;8977;50.902;4.314;2022-07-05T11:41:45;2.63;;;1.73;;
17714;SDS011;8977;50.902;4.314;2022-07-05T11:44:14;4.80;;;2.05;;
17714;SDS011;8977;50.902;4.314;2022-07-05T11:46:41;4.13;;;1.92;;
17714;SDS011;8977;50.902;4.314;2022-07-05T11:49:09;8.48;;;2.67;;
17714;SDS011;8977;50.902;4.314;2022-07-05T11:51:36;3.70;;;2.22;;
17714;SDS011;8977;50.902;4.314;2022-07-05T11:54:03;4.28;;;1.80;;
17714;SDS011;8977;50.902;4.314;2022-07-05T11:56:30;6.18;;;2.42;;
17714;SDS011;8977;50.902;4.314;2022-07-05T11:58:57;5.75;;;2.55;;
17714;SDS011;8977;50.902;4.314;2022-07-05T12:01:25;3.17;;;2.17;;
17714;SDS011;8977;50.902;4.314;2022-07-05T12:03:53;3.13;;;2.00;;
17714;SDS011;8977;50.902;4.314;2022-07-05T12:06:21;6.63;;;2.30;;
17714;SDS011;8977;50.902;4.314;2022-07-05T12:09:00;3.38;;;2.45;;
17714;SDS011;8977;50.902;4.314;2022-07-05T12:11:29;2.97;;;2.60;;
17714;SDS011;8977;50.902;4.314;2022-07-05T12:14:19;3.83;;;2.65;;
17714;SDS011;8977;50.902;4.314;2022-07-05T12:16:48;2.80;;;2.13;;
17714;SDS011;8977;50.902;4.314;2022-07-05T12:19:25;4.88;;;2.50;;
17714;SDS011;8977;50.902;4.314;2022-07-05T12:21:53;5.00;;;2.42;;
17714;SDS011;8977;50.902;4.314;2022-07-05T12:24:20;3.97;;;2.67;;
17714;SDS011;8977;50.902;4.314;2022-07-05T12:26:50;2.60;;;2.20;;
17714;SDS011;8977;50.902;4.314;2022-07-05T12:29:17;5.38;;;2.05;;
17714;SDS011;8977;50.902;4.314;2022-07-05T12:32:02;2.85;;;2.00;;
17714;SDS011;8977;50.902;4.314;2022-07-05T12:34:33;2.90;;;1.88;;
17714;SDS011;8977;50.902;4.314;2022-07-05T12:37:01;4.30;;;2.90;;
17714;SDS011;8977;50.902;4.314;2022-07-05T12:39:28;2.58;;;1.85;;
17714;SDS011;8977;50.902;4.314;2022-07-05T12:41:55;7.22;;;1.90;;
17714;SDS011;8977;50.902;4.314;2022-07-05T12:44:22;3.55;;;2.05;;
17714;SDS011;8977;50.902;4.314;2022-07-05T12:46:49;3.90;;;1.90;;
17714;SDS011;8977;50.902;4.314;2022-07-05T12:49:18;3.70;;;2.92;;
17714;SDS011;8977;50.902;4.314;2022-07-05T12:51:45;4.00;;;2.40;;
17714;SDS011;8977;50.902;4.314;2022-07-05T12:54:18;3.95;;;1.73;;
17714;SDS011;8977;50.902;4.314;2022-07-05T12:57:03;7.65;;;3.08;;
17714;SDS011;8977;50.902;4.314;2022-07-05T12:59:58;4.53;;;1.95;;
17714;SDS011;8977;50.902;4.314;2022-07-05T13:02:38;3.80;;;1.70;;
17714;SDS011;8977;50.902;4.314;2022-07-05T13:05:08;3.10;;;1.90;;
17714;SDS011;8977;50.902;4.314;2022-07-05T13:07:44;4.30;;;1.83;;
17714;SDS011;8977;50.902;4.314;2022-07-05T13:10:18;3.15;;;1.38;;
17714;SDS011;8977;50.902;4.314;2022-07-05T13:12:46;3.90;;;1.60;;
17714;SDS011;8977;50.902;4.314;2022-07-05T13:15:14;3.95;;;1.70;;
17714;SDS011;8977;50.902;4.314;2022-07-05T13:17:41;2.75;;;1.70;;
17714;SDS011;8977;50.902;4.314;2022-07-05T13:20:12;3.38;;;1.40;;
17714;SDS011;8977;50.902;4.314;2022-07-05T13:22:40;3.70;;;1.20;;
17714;SDS011;8977;50.902;4.314;2022-07-05T13:25:07;4.80;;;1.60;;
17714;SDS011;8977;50.902;4.314;2022-07-05T13:27:34;3.08;;;1.52;;
17714;SDS011;8977;50.902;4.314;2022-07-05T13:30:01;3.33;;;1.33;;
17714;SDS011;8977;50.902;4.314;2022-07-05T13:32:27;3.28;;;1.92;;
17714;SDS011;8977;50.902;4.314;2022-07-05T13:34:54;4.30;;;1.60;;
17714;SDS011;8977;50.902;4.314;2022-07-05T13:37:22;2.70;;;1.60;;
17714;SDS011;8977;50.902;4.314;2022-07-05T13:39:49;2.00;;;1.48;;
17714;SDS011;8977;50.902;4.314;2022-07-05T13:42:16;2.45;;;1.25;;
17714;SDS011;8977;50.902;4.314;2022-07-05T13:44:43;7.25;;;1.65;;
17714;SDS011;8977;50.902;4.314;2022-07-05T13:47:10;2.38;;;1.45;;
17714;SDS011;8977;50.902;4.314;2022-07-05T13:49:37;3.33;;;1.40;;
17714;SDS011;8977;50.902;4.314;2022-07-05T13:52:05;2.17;;;1.38;;
17714;SDS011;8977;50.902;4.314;2022-07-05T13:54:34;5.70;;;1.70;;
17714;SDS011;8977;50.902;4.314;2022-07-05T13:57:01;1.88;;;1.40;;
17714;SDS011;8977;50.902;4.314;2022-07-05T13:59:28;3.33;;;1.23;;
17714;SDS011;8977;50.902;4.314;2022-07-05T14:01:54;2.42;;;1.50;;
17714;SDS011;8977;50.902;4.314;2022-07-05T14:04:22;2.28;;;1.35;;
17714;SDS011;8977;50.902;4.314;2022-07-05T14:06:50;2.95;;;1.40;;
17714;SDS011;8977;50.902;4.314;2022-07-05T14:09:17;2.85;;;1.17;;
17714;SDS011;8977;50.902;4.314;2022-07-05T14:11:45;1.30;;;1.20;;
17714;SDS011;8977;50.902;4.314;2022-07-05T14:14:12;3.75;;;1.30;;
17714;SDS011;8977;50.902;4.314;2022-07-05T14:16:39;1.38;;;1.20;;
17714;SDS011;8977;50.902;4.314;2022-07-05T14:19:06;2.55;;;1.25;;
17714;SDS011;8977;50.902;4.314;2022-07-05T14:21:33;2.75;;;1.38;;
17714;SDS011;8977;50.902;4.314;2022-07-05T14:23:59;3.67;;;1.52;;
17714;SDS011;8977;50.902;4.314;2022-07-05T14:26:26;2.30;;;1.40;;
17714;SDS011;8977;50.902;4.314;2022-07-05T14:28:55;3.10;;;1.30;;
17714;SDS011;8977;50.902;4.314;2022-07-05T14:31:21;3.30;;;1.35;;
17714;SDS011;8977;50.902;4.314;2022-07-05T14:33:49;2.65;;;1.23;;
17714;SDS011;8977;50.902;4.314;2022-07-05T14:36:16;3.25;;;1.38;;
17714;SDS011;8977;50.902;4.314;2022-07-05T14:38:44;1.58;;;1.20;;
17714;SDS011;8977;50.902;4.314;2022-07-05T14:41:11;3.42;;;1.20;;
17714;SDS011;8977;50.902;4.314;2022-07-05T14:43:38;2.92;;;1.40;;
17714;SDS011;8977;50.902;4.314;2022-07-05T14:46:06;3.38;;;1.65;;
17714;SDS011;8977;50.902;4.314;2022-07-05T14:48:37;3.67;;;1.48;;
17714;SDS011;8977;50.902;4.314;2022-07-05T14:51:03;5.65;;;1.50;;
17714;SDS011;8977;50.902;4.314;2022-07-05T14:53:30;3.95;;;1.20;;
17714;SDS011;8977;50.902;4.314;2022-07-05T14:55:57;2.28;;;1.40;;
17714;SDS011;8977;50.902;4.314;2022-07-05T14:58:24;2.15;;;1.23;;
17714;SDS011;8977;50.902;4.314;2022-07-05T15:00:55;1.90;;;1.17;;
17714;SDS011;8977;50.902;4.314;2022-07-05T15:03:23;2.85;;;1.40;;
17714;SDS011;8977;50.902;4.314;2022-07-05T15:05:50;4.20;;;1.50;;
17714;SDS011;8977;50.902;4.314;2022-07-05T15:08:17;3.15;;;1.40;;
17714;SDS011;8977;50.902;4.314;2022-07-05T15:10:44;2.95;;;1.40;;
17714;SDS011;8977;50.902;4.314;2022-07-05T15:13:11;4.47;;;1.35;;
17714;SDS011;8977;50.902;4.314;2022-07-05T15:15:38;4.05;;;1.20;;
17714;SDS011;8977;50.902;4.314;2022-07-05T15:18:05;3.10;;;1.20;;
17714;SDS011;8977;50.902;4.314;2022-07-05T15:20:33;3.35;;;1.17;;
17714;SDS011;8977;50.902;4.314;2022-07-05T15:23:00;4.70;;;1.08;;